sensor_id;sensor_type;location;lat;lon;timestamp;P1;durP1;ratioP1;P2;durP2;ratioP2
19024;SDS011;9645;51.448;6.260;2022-12-07T00:00:14;40.08;;;17.17;;
19024;SDS011;9645;51.448;6.260;2022-12-07T00:02:42;37.97;;;15.82;;
19024;SDS011;9645;51.448;6.260;2022-12-07T00:05:09;35.20;;;15.63;;
19024;SDS011;9645;51.448;6.260;2022-12-07T00:07:37;36.30;;;16.13;;
19024;SDS011;9645;51.448;6.260;2022-12-07T00:10:05;35.13;;;15.02;;
19024;SDS011;9645;51.448;6.260;2022-12-07T00:12:32;37.80;;;15.63;;
19024;SDS011;9645;51.448;6.260;2022-12-07T00:14:59;37.28;;;16.88;;
19024;SDS011;9645;51.448;6.260;2022-12-07T00:17:26;37.00;;;16.02;;
19024;SDS011;9645;51.448;6.260;2022-12-07T00:19:53;34.10;;;16.23;;
19024;SDS011;9645;51.448;6.260;2022-12-07T00:22:20;39.05;;;16.75;;
19024;SDS011;9645;51.448;6.260;2022-12-07T00:24:48;34.90;;;15.85;;
19024;SDS011;9645;51.448;6.260;2022-12-07T00:27:15;36.85;;;16.48;;
19024;SDS011;9645;51.448;6.260;2022-12-07T00:29:42;51.92;;;16.77;;
19024;SDS011;9645;51.448;6.260;2022-12-07T00:32:09;38.47;;;16.27;;
19024;SDS011;9645;51.448;6.260;2022-12-07T00:34:36;36.08;;;16.63;;
19024;SDS011;9645;51.448;6.260;2022-12-07T00:37:03;41.17;;;17.35;;
19024;SDS011;9645;51.448;6.260;2022-12-07T00:39:30;38.85;;;16.60;;
19024;SDS011;9645;51.448;6.260;2022-12-07T00:41:58;42.08;;;16.10;;
19024;SDS011;9645;51.448;6.260;2022-12-07T00:44:25;47.22;;;17.60;;
19024;SDS011;9645;51.448;6.260;2022-12-07T00:46:53;47.00;;;16.77;;
19024;SDS011;9645;51.448;6.260;2022-12-07T00:49:20;51.60;;;19.15;;
19024;SDS011;9645;51.448;6.260;2022-12-07T00:51:47;42.42;;;18.00;;
19024;SDS011;9645;51.448;6.260;2022-12-07T00:54:14;39.83;;;16.63;;
19024;SDS011;9645;51.448;6.260;2022-12-07T00:56:41;45.55;;;17.55;;
19024;SDS011;9645;51.448;6.260;2022-12-07T00:59:12;40.90;;;17.02;;
19024;SDS011;9645;51.448;6.260;2022-12-07T01:01:41;45.78;;;17.17;;
19024;SDS011;9645;51.448;6.260;2022-12-07T01:04:08;39.03;;;17.40;;
19024;SDS011;9645;51.448;6.260;2022-12-07T01:06:35;54.00;;;18.40;;
19024;SDS011;9645;51.448;6.260;2022-12-07T01:09:02;44.33;;;18.48;;
19024;SDS011;9645;51.448;6.260;2022-12-07T01:11:31;43.42;;;17.55;;
19024;SDS011;9645;51.448;6.260;2022-12-07T01:13:58;46.28;;;18.27;;
19024;SDS011;9645;51.448;6.260;2022-12-07T01:16:28;41.55;;;16.63;;
19024;SDS011;9645;51.448;6.260;2022-12-07T01:18:56;40.22;;;17.42;;
19024;SDS011;9645;51.448;6.260;2022-12-07T01:21:25;39.78;;;16.90;;
19024;SDS011;9645;51.448;6.260;2022-12-07T01:23:54;36.47;;;16.55;;
19024;SDS011;9645;51.448;6.260;2022-12-07T01:26:23;38.35;;;15.35;;
19024;SDS011;9645;51.448;6.260;2022-12-07T01:28:51;41.60;;;16.77;;
19024;SDS011;9645;51.448;6.260;2022-12-07T01:31:20;36.90;;;16.13;;
19024;SDS011;9645;51.448;6.260;2022-12-07T01:33:51;38.97;;;15.82;;
19024;SDS011;9645;51.448;6.260;2022-12-07T01:36:20;41.95;;;16.98;;
19024;SDS011;9645;51.448;6.260;2022-12-07T01:38:50;37.97;;;15.35;;
19024;SDS011;9645;51.448;6.260;2022-12-07T01:41:23;43.92;;;16.58;;
19024;SDS011;9645;51.448;6.260;2022-12-07T01:44:08;32.63;;;15.57;;
19024;SDS011;9645;51.448;6.260;2022-12-07T01:46:46;41.10;;;16.08;;
19024;SDS011;9645;51.448;6.260;2022-12-07T01:49:17;38.50;;;16.05;;
19024;SDS011;9645;51.448;6.260;2022-12-07T01:51:49;43.08;;;17.05;;
19024;SDS011;9645;51.448;6.260;2022-12-07T01:54:19;47.72;;;16.30;;
19024;SDS011;9645;51.448;6.260;2022-12-07T01:56:48;38.00;;;16.13;;
19024;SDS011;9645;51.448;6.260;2022-12-07T01:59:18;45.00;;;16.38;;
19024;SDS011;9645;51.448;6.260;2022-12-07T02:01:47;36.40;;;16.70;;
19024;SDS011;9645;51.448;6.260;2022-12-07T02:04:14;33.78;;;14.85;;
19024;SDS011;9645;51.448;6.260;2022-12-07T02:06:43;41.17;;;15.45;;
19024;SDS011;9645;51.448;6.260;2022-12-07T02:09:11;36.97;;;16.52;;
19024;SDS011;9645;51.448;6.260;2022-12-07T02:11:39;35.10;;;15.93;;
19024;SDS011;9645;51.448;6.260;2022-12-07T02:14:06;39.72;;;14.88;;
19024;SDS011;9645;51.448;6.260;2022-12-07T02:16:35;36.78;;;16.33;;
19024;SDS011;9645;51.448;6.260;2022-12-07T02:19:21;39.20;;;16.60;;
19024;SDS011;9645;51.448;6.260;2022-12-07T02:22:16;44.80;;;16.73;;
19024;SDS011;9645;51.448;6.260;2022-12-07T02:24:57;41.17;;;16.08;;
19024;SDS011;9645;51.448;6.260;2022-12-07T02:27:37;41.13;;;15.82;;
19024;SDS011;9645;51.448;6.260;2022-12-07T02:30:13;40.47;;;15.40;;
19024;SDS011;9645;51.448;6.260;2022-12-07T02:32:43;37.60;;;15.40;;
19024;SDS011;9645;51.448;6.260;2022-12-07T02:35:19;41.67;;;15.45;;
19024;SDS011;9645;51.448;6.260;2022-12-07T02:37:51;37.80;;;16.40;;
19024;SDS011;9645;51.448;6.260;2022-12-07T02:40:25;35.67;;;15.55;;
19024;SDS011;9645;51.448;6.260;2022-12-07T02:42:58;39.17;;;15.00;;
19024;SDS011;9645;51.448;6.260;2022-12-07T02:45:36;44.20;;;15.05;;
19024;SDS011;9645;51.448;6.260;2022-12-07T02:48:06;44.88;;;16.08;;
19024;SDS011;9645;51.448;6.260;2022-12-07T02:50:36;41.40;;;16.40;;
19024;SDS011;9645;51.448;6.260;2022-12-07T02:53:03;40.20;;;16.55;;
19024;SDS011;9645;51.448;6.260;2022-12-07T02:55:32;49.70;;;15.73;;
19024;SDS011;9645;51.448;6.260;2022-12-07T02:58:06;42.72;;;15.70;;
19024;SDS011;9645;51.448;6.260;2022-12-07T03:00:48;43.30;;;15.68;;
19024;SDS011;9645;51.448;6.260;2022-12-07T03:03:21;39.83;;;15.98;;
19024;SDS011;9645;51.448;6.260;2022-12-07T03:05:52;39.88;;;15.23;;
19024;SDS011;9645;51.448;6.260;2022-12-07T03:08:38;40.50;;;16.48;;
19024;SDS011;9645;51.448;6.260;2022-12-07T03:11:14;40.45;;;15.52;;
19024;SDS011;9645;51.448;6.260;2022-12-07T03:13:48;46.53;;;15.90;;
19024;SDS011;9645;51.448;6.260;2022-12-07T03:16:21;35.92;;;15.88;;
19024;SDS011;9645;51.448;6.260;2022-12-07T03:18:52;34.45;;;14.80;;
19024;SDS011;9645;51.448;6.260;2022-12-07T03:21:22;39.65;;;15.98;;
19024;SDS011;9645;51.448;6.260;2022-12-07T03:23:53;36.90;;;15.02;;
19024;SDS011;9645;51.448;6.260;2022-12-07T03:26:23;36.65;;;14.73;;
19024;SDS011;9645;51.448;6.260;2022-12-07T03:28:56;38.58;;;15.60;;
19024;SDS011;9645;51.448;6.260;2022-12-07T03:31:30;53.10;;;15.65;;
19024;SDS011;9645;51.448;6.260;2022-12-07T03:34:01;40.58;;;16.02;;
19024;SDS011;9645;51.448;6.260;2022-12-07T03:36:33;38.50;;;14.65;;
19024;SDS011;9645;51.448;6.260;2022-12-07T03:39:08;42.63;;;16.38;;
19024;SDS011;9645;51.448;6.260;2022-12-07T03:41:44;39.10;;;14.65;;
19024;SDS011;9645;51.448;6.260;2022-12-07T03:44:12;53.05;;;16.70;;
19024;SDS011;9645;51.448;6.260;2022-12-07T03:46:44;40.58;;;15.65;;
19024;SDS011;9645;51.448;6.260;2022-12-07T03:49:18;44.13;;;16.40;;
19024;SDS011;9645;51.448;6.260;2022-12-07T03:51:51;37.70;;;16.05;;
19024;SDS011;9645;51.448;6.260;2022-12-07T03:54:24;41.85;;;15.48;;
19024;SDS011;9645;51.448;6.260;2022-12-07T03:56:56;43.22;;;16.17;;
19024;SDS011;9645;51.448;6.260;2022-12-07T03:59:24;36.22;;;16.00;;
19024;SDS011;9645;51.448;6.260;2022-12-07T04:01:54;43.38;;;15.52;;
19024;SDS011;9645;51.448;6.260;2022-12-07T04:04:22;42.25;;;15.70;;
19024;SDS011;9645;51.448;6.260;2022-12-07T04:06:50;47.13;;;15.35;;
19024;SDS011;9645;51.448;6.260;2022-12-07T04:09:17;36.88;;;15.88;;
19024;SDS011;9645;51.448;6.260;2022-12-07T04:11:44;40.42;;;15.23;;
19024;SDS011;9645;51.448;6.260;2022-12-07T04:14:12;45.13;;;15.38;;
19024;SDS011;9645;51.448;6.260;2022-12-07T04:16:44;35.63;;;15.05;;
19024;SDS011;9645;51.448;6.260;2022-12-07T04:19:13;37.90;;;15.30;;
19024;SDS011;9645;51.448;6.260;2022-12-07T04:21:40;35.15;;;14.40;;
19024;SDS011;9645;51.448;6.260;2022-12-07T04:24:08;48.40;;;17.02;;
19024;SDS011;9645;51.448;6.260;2022-12-07T04:26:35;45.67;;;17.00;;
19024;SDS011;9645;51.448;6.260;2022-12-07T04:29:02;37.72;;;16.15;;
19024;SDS011;9645;51.448;6.260;2022-12-07T04:31:30;42.28;;;14.35;;
19024;SDS011;9645;51.448;6.260;2022-12-07T04:33:57;48.33;;;15.35;;
19024;SDS011;9645;51.448;6.260;2022-12-07T04:36:25;32.90;;;15.18;;
19024;SDS011;9645;51.448;6.260;2022-12-07T04:38:52;35.17;;;15.13;;
19024;SDS011;9645;51.448;6.260;2022-12-07T04:41:20;38.03;;;16.52;;
19024;SDS011;9645;51.448;6.260;2022-12-07T04:43:52;35.10;;;14.85;;
19024;SDS011;9645;51.448;6.260;2022-12-07T04:46:20;35.50;;;13.52;;
19024;SDS011;9645;51.448;6.260;2022-12-07T04:48:47;32.42;;;14.05;;
19024;SDS011;9645;51.448;6.260;2022-12-07T04:51:15;34.75;;;15.63;;
19024;SDS011;9645;51.448;6.260;2022-12-07T04:53:47;35.47;;;14.13;;
19024;SDS011;9645;51.448;6.260;2022-12-07T04:56:14;33.55;;;13.45;;
19024;SDS011;9645;51.448;6.260;2022-12-07T04:58:42;38.55;;;14.63;;
19024;SDS011;9645;51.448;6.260;2022-12-07T05:01:10;40.55;;;15.48;;
19024;SDS011;9645;51.448;6.260;2022-12-07T05:03:38;35.78;;;14.25;;
19024;SDS011;9645;51.448;6.260;2022-12-07T05:06:06;44.60;;;14.32;;
19024;SDS011;9645;51.448;6.260;2022-12-07T05:08:33;34.00;;;13.50;;
19024;SDS011;9645;51.448;6.260;2022-12-07T05:11:02;40.83;;;13.05;;
19024;SDS011;9645;51.448;6.260;2022-12-07T05:13:30;34.53;;;13.82;;
19024;SDS011;9645;51.448;6.260;2022-12-07T05:15:58;35.78;;;14.93;;
19024;SDS011;9645;51.448;6.260;2022-12-07T05:18:25;31.50;;;14.05;;
19024;SDS011;9645;51.448;6.260;2022-12-07T05:20:52;33.33;;;13.50;;
19024;SDS011;9645;51.448;6.260;2022-12-07T05:23:19;34.92;;;14.15;;
19024;SDS011;9645;51.448;6.260;2022-12-07T05:25:47;37.60;;;13.63;;
19024;SDS011;9645;51.448;6.260;2022-12-07T05:28:15;39.35;;;15.15;;
19024;SDS011;9645;51.448;6.260;2022-12-07T05:30:42;41.15;;;14.50;;
19024;SDS011;9645;51.448;6.260;2022-12-07T05:33:09;30.77;;;13.02;;
19024;SDS011;9645;51.448;6.260;2022-12-07T05:35:36;38.65;;;14.30;;
19024;SDS011;9645;51.448;6.260;2022-12-07T05:38:04;33.22;;;13.60;;
19024;SDS011;9645;51.448;6.260;2022-12-07T05:40:31;44.55;;;13.65;;
19024;SDS011;9645;51.448;6.260;2022-12-07T05:42:58;38.10;;;14.95;;
19024;SDS011;9645;51.448;6.260;2022-12-07T05:45:27;33.15;;;15.02;;
19024;SDS011;9645;51.448;6.260;2022-12-07T05:47:54;36.05;;;13.07;;
19024;SDS011;9645;51.448;6.260;2022-12-07T05:50:21;40.58;;;13.75;;
19024;SDS011;9645;51.448;6.260;2022-12-07T05:52:48;47.00;;;14.77;;
19024;SDS011;9645;51.448;6.260;2022-12-07T05:55:15;37.28;;;14.18;;
19024;SDS011;9645;51.448;6.260;2022-12-07T05:57:42;40.13;;;12.38;;
19024;SDS011;9645;51.448;6.260;2022-12-07T06:00:31;37.00;;;14.02;;
19024;SDS011;9645;51.448;6.260;2022-12-07T06:02:58;30.40;;;13.32;;
19024;SDS011;9645;51.448;6.260;2022-12-07T06:05:25;32.25;;;13.02;;
19024;SDS011;9645;51.448;6.260;2022-12-07T06:07:52;39.28;;;13.18;;
19024;SDS011;9645;51.448;6.260;2022-12-07T06:10:19;33.75;;;12.82;;
19024;SDS011;9645;51.448;6.260;2022-12-07T06:12:46;60.40;;;22.52;;
19024;SDS011;9645;51.448;6.260;2022-12-07T06:15:13;50.08;;;20.55;;
19024;SDS011;9645;51.448;6.260;2022-12-07T06:17:41;33.95;;;14.90;;
19024;SDS011;9645;51.448;6.260;2022-12-07T06:20:08;29.08;;;12.70;;
19024;SDS011;9645;51.448;6.260;2022-12-07T06:22:35;35.05;;;12.85;;
19024;SDS011;9645;51.448;6.260;2022-12-07T06:25:03;37.95;;;13.40;;
19024;SDS011;9645;51.448;6.260;2022-12-07T06:27:30;28.85;;;12.52;;
19024;SDS011;9645;51.448;6.260;2022-12-07T06:29:57;26.60;;;13.10;;
19024;SDS011;9645;51.448;6.260;2022-12-07T06:32:24;29.20;;;12.93;;
19024;SDS011;9645;51.448;6.260;2022-12-07T06:34:53;38.85;;;14.18;;
19024;SDS011;9645;51.448;6.260;2022-12-07T06:37:20;30.52;;;12.80;;
19024;SDS011;9645;51.448;6.260;2022-12-07T06:39:48;35.38;;;12.38;;
19024;SDS011;9645;51.448;6.260;2022-12-07T06:42:15;29.52;;;11.85;;
19024;SDS011;9645;51.448;6.260;2022-12-07T06:44:42;30.50;;;13.02;;
19024;SDS011;9645;51.448;6.260;2022-12-07T06:47:10;34.25;;;11.90;;
19024;SDS011;9645;51.448;6.260;2022-12-07T06:49:37;26.45;;;11.60;;
19024;SDS011;9645;51.448;6.260;2022-12-07T06:52:06;29.23;;;11.45;;
19024;SDS011;9645;51.448;6.260;2022-12-07T06:54:33;33.03;;;11.73;;
19024;SDS011;9645;51.448;6.260;2022-12-07T06:57:00;25.38;;;10.93;;
19024;SDS011;9645;51.448;6.260;2022-12-07T06:59:27;31.17;;;10.57;;
19024;SDS011;9645;51.448;6.260;2022-12-07T07:01:54;27.20;;;11.57;;
19024;SDS011;9645;51.448;6.260;2022-12-07T07:04:21;27.55;;;11.07;;
19024;SDS011;9645;51.448;6.260;2022-12-07T07:06:48;24.52;;;11.27;;
19024;SDS011;9645;51.448;6.260;2022-12-07T07:09:17;25.10;;;9.77;;
19024;SDS011;9645;51.448;6.260;2022-12-07T07:11:44;28.35;;;10.32;;
19024;SDS011;9645;51.448;6.260;2022-12-07T07:14:11;27.73;;;10.23;;
19024;SDS011;9645;51.448;6.260;2022-12-07T07:16:43;34.45;;;10.23;;
19024;SDS011;9645;51.448;6.260;2022-12-07T07:19:12;24.40;;;10.32;;
19024;SDS011;9645;51.448;6.260;2022-12-07T07:21:39;35.90;;;11.63;;
19024;SDS011;9645;51.448;6.260;2022-12-07T07:24:07;28.40;;;11.32;;
19024;SDS011;9645;51.448;6.260;2022-12-07T07:26:35;27.98;;;11.02;;
19024;SDS011;9645;51.448;6.260;2022-12-07T07:29:02;32.33;;;11.93;;
19024;SDS011;9645;51.448;6.260;2022-12-07T07:31:29;27.70;;;12.20;;
19024;SDS011;9645;51.448;6.260;2022-12-07T07:33:56;28.08;;;11.60;;
19024;SDS011;9645;51.448;6.260;2022-12-07T07:36:26;29.65;;;11.48;;
19024;SDS011;9645;51.448;6.260;2022-12-07T07:38:54;31.70;;;11.35;;
19024;SDS011;9645;51.448;6.260;2022-12-07T07:41:21;27.95;;;12.27;;
19024;SDS011;9645;51.448;6.260;2022-12-07T07:43:49;27.95;;;10.55;;
19024;SDS011;9645;51.448;6.260;2022-12-07T07:46:17;25.88;;;10.80;;
19024;SDS011;9645;51.448;6.260;2022-12-07T07:48:44;29.73;;;10.82;;
19024;SDS011;9645;51.448;6.260;2022-12-07T07:51:11;60.45;;;11.35;;
19024;SDS011;9645;51.448;6.260;2022-12-07T07:53:38;27.58;;;11.27;;
19024;SDS011;9645;51.448;6.260;2022-12-07T07:56:06;33.72;;;11.65;;
19024;SDS011;9645;51.448;6.260;2022-12-07T07:58:33;26.88;;;10.65;;
19024;SDS011;9645;51.448;6.260;2022-12-07T08:01:04;34.83;;;11.40;;
19024;SDS011;9645;51.448;6.260;2022-12-07T08:03:32;28.05;;;11.13;;
19024;SDS011;9645;51.448;6.260;2022-12-07T08:06:01;28.48;;;11.95;;
19024;SDS011;9645;51.448;6.260;2022-12-07T08:08:28;33.00;;;12.05;;
19024;SDS011;9645;51.448;6.260;2022-12-07T08:10:55;29.40;;;13.18;;
19024;SDS011;9645;51.448;6.260;2022-12-07T08:13:25;31.95;;;12.30;;
19024;SDS011;9645;51.448;6.260;2022-12-07T08:15:53;26.33;;;11.85;;
19024;SDS011;9645;51.448;6.260;2022-12-07T08:18:24;38.35;;;11.57;;
19024;SDS011;9645;51.448;6.260;2022-12-07T08:20:51;41.97;;;12.90;;
19024;SDS011;9645;51.448;6.260;2022-12-07T08:23:24;29.42;;;12.55;;
19024;SDS011;9645;51.448;6.260;2022-12-07T08:25:52;48.38;;;12.68;;
19024;SDS011;9645;51.448;6.260;2022-12-07T08:28:19;28.35;;;12.55;;
19024;SDS011;9645;51.448;6.260;2022-12-07T08:30:50;41.83;;;12.57;;
19024;SDS011;9645;51.448;6.260;2022-12-07T08:33:17;30.48;;;11.77;;
19024;SDS011;9645;51.448;6.260;2022-12-07T08:35:51;28.98;;;12.85;;
19024;SDS011;9645;51.448;6.260;2022-12-07T08:38:19;34.58;;;12.27;;
19024;SDS011;9645;51.448;6.260;2022-12-07T08:40:53;31.08;;;11.82;;
19024;SDS011;9645;51.448;6.260;2022-12-07T08:43:20;30.30;;;12.10;;
19024;SDS011;9645;51.448;6.260;2022-12-07T08:45:47;34.92;;;13.02;;
19024;SDS011;9645;51.448;6.260;2022-12-07T08:48:18;47.70;;;12.75;;
19024;SDS011;9645;51.448;6.260;2022-12-07T08:50:49;34.90;;;12.32;;
19024;SDS011;9645;51.448;6.260;2022-12-07T08:53:18;35.47;;;13.68;;
19024;SDS011;9645;51.448;6.260;2022-12-07T08:55:45;45.28;;;13.77;;
19024;SDS011;9645;51.448;6.260;2022-12-07T08:58:12;42.00;;;13.45;;
19024;SDS011;9645;51.448;6.260;2022-12-07T09:00:40;31.83;;;13.30;;
19024;SDS011;9645;51.448;6.260;2022-12-07T09:03:07;46.47;;;13.07;;
19024;SDS011;9645;51.448;6.260;2022-12-07T09:05:34;29.80;;;12.43;;
19024;SDS011;9645;51.448;6.260;2022-12-07T09:08:03;30.17;;;12.65;;
19024;SDS011;9645;51.448;6.260;2022-12-07T09:10:30;31.15;;;12.75;;
19024;SDS011;9645;51.448;6.260;2022-12-07T09:12:57;31.73;;;12.18;;
19024;SDS011;9645;51.448;6.260;2022-12-07T09:15:25;30.73;;;10.95;;
19024;SDS011;9645;51.448;6.260;2022-12-07T09:17:56;31.52;;;10.48;;
19024;SDS011;9645;51.448;6.260;2022-12-07T09:20:23;21.30;;;10.50;;
19024;SDS011;9645;51.448;6.260;2022-12-07T09:22:50;30.70;;;10.13;;
19024;SDS011;9645;51.448;6.260;2022-12-07T09:25:18;28.35;;;9.55;;
19024;SDS011;9645;51.448;6.260;2022-12-07T09:27:58;24.33;;;10.50;;
19024;SDS011;9645;51.448;6.260;2022-12-07T09:30:25;21.05;;;9.98;;
19024;SDS011;9645;51.448;6.260;2022-12-07T09:32:54;22.38;;;9.40;;
19024;SDS011;9645;51.448;6.260;2022-12-07T09:35:22;17.85;;;8.90;;
19024;SDS011;9645;51.448;6.260;2022-12-07T09:37:50;22.30;;;9.10;;
19024;SDS011;9645;51.448;6.260;2022-12-07T09:40:19;15.60;;;7.72;;
19024;SDS011;9645;51.448;6.260;2022-12-07T09:42:49;23.83;;;8.30;;
19024;SDS011;9645;51.448;6.260;2022-12-07T09:45:21;20.05;;;8.30;;
19024;SDS011;9645;51.448;6.260;2022-12-07T09:47:49;20.15;;;8.02;;
19024;SDS011;9645;51.448;6.260;2022-12-07T09:50:19;16.33;;;8.35;;
19024;SDS011;9645;51.448;6.260;2022-12-07T09:52:49;27.42;;;9.00;;
19024;SDS011;9645;51.448;6.260;2022-12-07T09:55:19;21.67;;;9.60;;
19024;SDS011;9645;51.448;6.260;2022-12-07T09:57:50;23.95;;;8.77;;
19024;SDS011;9645;51.448;6.260;2022-12-07T10:00:18;16.63;;;8.02;;
19024;SDS011;9645;51.448;6.260;2022-12-07T10:02:47;20.40;;;6.63;;
19024;SDS011;9645;51.448;6.260;2022-12-07T10:05:19;16.58;;;7.07;;
19024;SDS011;9645;51.448;6.260;2022-12-07T10:07:50;10.57;;;5.40;;
19024;SDS011;9645;51.448;6.260;2022-12-07T10:10:18;9.82;;;5.30;;
19024;SDS011;9645;51.448;6.260;2022-12-07T10:12:54;11.65;;;5.82;;
19024;SDS011;9645;51.448;6.260;2022-12-07T10:15:23;11.10;;;4.57;;
19024;SDS011;9645;51.448;6.260;2022-12-07T10:17:50;8.93;;;4.53;;
19024;SDS011;9645;51.448;6.260;2022-12-07T10:20:20;13.52;;;5.07;;
19024;SDS011;9645;51.448;6.260;2022-12-07T10:22:56;10.57;;;5.47;;
19024;SDS011;9645;51.448;6.260;2022-12-07T10:25:28;20.77;;;6.00;;
19024;SDS011;9645;51.448;6.260;2022-12-07T10:28:02;14.30;;;5.63;;
19024;SDS011;9645;51.448;6.260;2022-12-07T10:30:46;13.63;;;5.75;;
19024;SDS011;9645;51.448;6.260;2022-12-07T10:33:21;13.95;;;5.45;;
19024;SDS011;9645;51.448;6.260;2022-12-07T10:35:54;13.02;;;5.60;;
19024;SDS011;9645;51.448;6.260;2022-12-07T10:38:22;15.98;;;6.00;;
19024;SDS011;9645;51.448;6.260;2022-12-07T10:41:04;14.32;;;6.47;;
19024;SDS011;9645;51.448;6.260;2022-12-07T10:43:32;11.50;;;6.35;;
19024;SDS011;9645;51.448;6.260;2022-12-07T10:49:04;9.18;;;5.25;;
19024;SDS011;9645;51.448;6.260;2022-12-07T10:51:50;10.85;;;5.00;;
19024;SDS011;9645;51.448;6.260;2022-12-07T10:54:26;18.48;;;4.63;;
19024;SDS011;9645;51.448;6.260;2022-12-07T10:57:14;11.25;;;5.15;;
19024;SDS011;9645;51.448;6.260;2022-12-07T11:05:48;11.20;;;4.63;;
19024;SDS011;9645;51.448;6.260;2022-12-07T11:08:26;15.32;;;4.85;;
19024;SDS011;9645;51.448;6.260;2022-12-07T11:11:06;8.77;;;4.53;;
19024;SDS011;9645;51.448;6.260;2022-12-07T11:13:42;17.80;;;4.70;;
19024;SDS011;9645;51.448;6.260;2022-12-07T11:16:16;14.80;;;5.20;;
19024;SDS011;9645;51.448;6.260;2022-12-07T11:18:52;9.90;;;5.63;;
19024;SDS011;9645;51.448;6.260;2022-12-07T11:21:28;10.38;;;3.90;;
19024;SDS011;9645;51.448;6.260;2022-12-07T11:24:01;7.60;;;5.10;;
19024;SDS011;9645;51.448;6.260;2022-12-07T11:26:41;16.05;;;5.57;;
19024;SDS011;9645;51.448;6.260;2022-12-07T11:29:28;17.83;;;5.43;;
19024;SDS011;9645;51.448;6.260;2022-12-07T11:32:10;9.65;;;4.43;;
19024;SDS011;9645;51.448;6.260;2022-12-07T11:34:46;10.63;;;4.93;;
19024;SDS011;9645;51.448;6.260;2022-12-07T11:37:23;10.23;;;5.20;;
19024;SDS011;9645;51.448;6.260;2022-12-07T11:39:56;9.52;;;4.30;;
19024;SDS011;9645;51.448;6.260;2022-12-07T11:42:29;8.38;;;4.82;;
19024;SDS011;9645;51.448;6.260;2022-12-07T11:45:03;9.55;;;4.75;;
19024;SDS011;9645;51.448;6.260;2022-12-07T11:47:40;20.98;;;7.55;;
19024;SDS011;9645;51.448;6.260;2022-12-07T11:50:16;22.63;;;8.20;;
19024;SDS011;9645;51.448;6.260;2022-12-07T11:52:51;16.77;;;7.18;;
19024;SDS011;9645;51.448;6.260;2022-12-07T11:55:24;14.27;;;6.00;;
19024;SDS011;9645;51.448;6.260;2022-12-07T11:57:58;7.28;;;3.13;;
19024;SDS011;9645;51.448;6.260;2022-12-07T12:00:31;7.72;;;3.70;;
19024;SDS011;9645;51.448;6.260;2022-12-07T12:03:01;9.55;;;3.70;;
19024;SDS011;9645;51.448;6.260;2022-12-07T12:05:36;6.13;;;3.13;;
19024;SDS011;9645;51.448;6.260;2022-12-07T12:08:10;11.63;;;4.35;;
19024;SDS011;9645;51.448;6.260;2022-12-07T12:10:45;11.18;;;3.67;;
19024;SDS011;9645;51.448;6.260;2022-12-07T12:13:30;13.07;;;4.18;;
19024;SDS011;9645;51.448;6.260;2022-12-07T12:16:36;9.75;;;3.10;;
19024;SDS011;9645;51.448;6.260;2022-12-07T12:19:22;5.95;;;2.90;;
19024;SDS011;9645;51.448;6.260;2022-12-07T12:21:54;4.25;;;2.30;;
19024;SDS011;9645;51.448;6.260;2022-12-07T12:24:26;6.30;;;3.00;;
19024;SDS011;9645;51.448;6.260;2022-12-07T12:27:01;7.57;;;2.80;;
19024;SDS011;9645;51.448;6.260;2022-12-07T12:29:32;7.18;;;3.17;;
19024;SDS011;9645;51.448;6.260;2022-12-07T12:32:06;6.25;;;2.65;;
19024;SDS011;9645;51.448;6.260;2022-12-07T12:34:39;6.68;;;2.70;;
19024;SDS011;9645;51.448;6.260;2022-12-07T12:43:21;9.00;;;2.70;;
19024;SDS011;9645;51.448;6.260;2022-12-07T12:55:29;4.90;;;1.95;;
19024;SDS011;9645;51.448;6.260;2022-12-07T12:58:41;10.05;;;3.20;;
19024;SDS011;9645;51.448;6.260;2022-12-07T13:10:20;11.10;;;2.97;;
19024;SDS011;9645;51.448;6.260;2022-12-07T13:12:56;6.80;;;2.80;;
19024;SDS011;9645;51.448;6.260;2022-12-07T13:15:34;11.02;;;2.60;;
19024;SDS011;9645;51.448;6.260;2022-12-07T13:20:56;8.55;;;2.90;;
19024;SDS011;9645;51.448;6.260;2022-12-07T13:23:25;9.35;;;2.95;;
19024;SDS011;9645;51.448;6.260;2022-12-07T13:26:03;4.90;;;2.83;;
19024;SDS011;9645;51.448;6.260;2022-12-07T13:28:38;6.63;;;2.60;;
19024;SDS011;9645;51.448;6.260;2022-12-07T13:31:11;5.47;;;2.60;;
19024;SDS011;9645;51.448;6.260;2022-12-07T13:33:45;5.57;;;2.60;;
19024;SDS011;9645;51.448;6.260;2022-12-07T13:36:19;6.93;;;2.00;;
19024;SDS011;9645;51.448;6.260;2022-12-07T13:38:50;6.97;;;1.80;;
19024;SDS011;9645;51.448;6.260;2022-12-07T13:41:19;4.85;;;2.25;;
19024;SDS011;9645;51.448;6.260;2022-12-07T13:43:48;13.38;;;2.20;;
19024;SDS011;9645;51.448;6.260;2022-12-07T13:46:19;12.20;;;2.08;;
19024;SDS011;9645;51.448;6.260;2022-12-07T13:48:51;8.77;;;2.20;;
19024;SDS011;9645;51.448;6.260;2022-12-07T13:51:23;3.03;;;2.53;;
19024;SDS011;9645;51.448;6.260;2022-12-07T13:53:53;14.73;;;3.90;;
19024;SDS011;9645;51.448;6.260;2022-12-07T13:56:22;9.77;;;2.67;;
19024;SDS011;9645;51.448;6.260;2022-12-07T13:58:52;8.80;;;2.20;;
19024;SDS011;9645;51.448;6.260;2022-12-07T14:01:20;7.75;;;2.95;;
19024;SDS011;9645;51.448;6.260;2022-12-07T14:03:47;13.13;;;4.13;;
19024;SDS011;9645;51.448;6.260;2022-12-07T14:06:15;3.38;;;2.35;;
19024;SDS011;9645;51.448;6.260;2022-12-07T14:08:45;8.93;;;2.20;;
19024;SDS011;9645;51.448;6.260;2022-12-07T14:11:14;2.20;;;1.30;;
19024;SDS011;9645;51.448;6.260;2022-12-07T14:13:56;17.15;;;2.40;;
19024;SDS011;9645;51.448;6.260;2022-12-07T14:16:26;8.73;;;1.42;;
19024;SDS011;9645;51.448;6.260;2022-12-07T14:18:55;18.13;;;3.75;;
19024;SDS011;9645;51.448;6.260;2022-12-07T14:21:24;7.75;;;3.00;;
19024;SDS011;9645;51.448;6.260;2022-12-07T14:24:04;2.17;;;1.42;;
19024;SDS011;9645;51.448;6.260;2022-12-07T14:26:44;4.38;;;1.55;;
19024;SDS011;9645;51.448;6.260;2022-12-07T14:29:21;6.70;;;2.90;;
19024;SDS011;9645;51.448;6.260;2022-12-07T14:31:56;4.05;;;1.50;;
19024;SDS011;9645;51.448;6.260;2022-12-07T14:34:24;2.70;;;1.70;;
19024;SDS011;9645;51.448;6.260;2022-12-07T14:36:51;10.82;;;1.60;;
19024;SDS011;9645;51.448;6.260;2022-12-07T14:39:20;8.40;;;2.60;;
19024;SDS011;9645;51.448;6.260;2022-12-07T14:41:47;5.78;;;1.50;;
19024;SDS011;9645;51.448;6.260;2022-12-07T14:44:16;3.65;;;1.67;;
19024;SDS011;9645;51.448;6.260;2022-12-07T14:46:45;12.75;;;2.90;;
19024;SDS011;9645;51.448;6.260;2022-12-07T14:49:18;11.23;;;3.58;;
19024;SDS011;9645;51.448;6.260;2022-12-07T14:51:46;12.13;;;2.00;;
19024;SDS011;9645;51.448;6.260;2022-12-07T14:54:15;11.05;;;1.60;;
19024;SDS011;9645;51.448;6.260;2022-12-07T14:56:45;4.93;;;1.63;;
19024;SDS011;9645;51.448;6.260;2022-12-07T14:59:14;7.45;;;1.58;;
19024;SDS011;9645;51.448;6.260;2022-12-07T15:01:41;2.45;;;1.40;;
19024;SDS011;9645;51.448;6.260;2022-12-07T15:04:08;5.07;;;1.40;;
19024;SDS011;9645;51.448;6.260;2022-12-07T15:06:35;6.18;;;1.60;;
19024;SDS011;9645;51.448;6.260;2022-12-07T15:09:03;2.38;;;1.30;;
19024;SDS011;9645;51.448;6.260;2022-12-07T15:11:30;2.95;;;1.60;;
19024;SDS011;9645;51.448;6.260;2022-12-07T15:13:58;2.70;;;1.70;;
19024;SDS011;9645;51.448;6.260;2022-12-07T15:16:36;7.63;;;1.35;;
19024;SDS011;9645;51.448;6.260;2022-12-07T15:19:05;4.35;;;1.70;;
19024;SDS011;9645;51.448;6.260;2022-12-07T15:21:38;7.53;;;1.83;;
19024;SDS011;9645;51.448;6.260;2022-12-07T15:24:05;5.00;;;1.88;;
19024;SDS011;9645;51.448;6.260;2022-12-07T15:26:34;3.22;;;1.98;;
19024;SDS011;9645;51.448;6.260;2022-12-07T15:29:02;5.57;;;1.85;;
19024;SDS011;9645;51.448;6.260;2022-12-07T15:31:29;5.85;;;1.45;;
19024;SDS011;9645;51.448;6.260;2022-12-07T15:33:56;8.43;;;1.60;;
19024;SDS011;9645;51.448;6.260;2022-12-07T15:36:24;2.60;;;1.60;;
19024;SDS011;9645;51.448;6.260;2022-12-07T15:38:52;7.40;;;1.55;;